Time;durP1;ratioP1;P1;durP2;ratioP2;P2;SDS_P1;SDS_P2;PMS_P1;PMS_P2;Temp;Humidity;BMP_temperature;BMP_pressure;BME280_temperature;BME280_humidity;BME280_pressure;Samples;Min_cycle;Max_cycle;Signal;HPM_P1;HPM_P2
2023/04/21 00:00:16;;;;;;;24.40;11.87;;;;;;;;;;10528348;28;20063;-83
2023/04/21 00:05:17;;;;;;;28.47;12.73;;;;;;;;;;10527505;28;20093;-82
2023/04/21 00:10:18;;;;;;;26.53;13.33;;;;;;;;;;10527168;28;20441;-82
2023/04/21 00:15:19;;;;;;;24.77;12.93;;;;;;;;;;10508960;28;20086;-82
2023/04/21 00:20:20;;;;;;;26.03;11.60;;;;;;;;;;10527510;28;20046;-83
2023/04/21 00:25:21;;;;;;;22.07;11.63;;;;;;;;;;10526831;28;20031;-82
2023/04/21 00:30:22;;;;;;;23.70;11.47;;;;;;;;;;10526952;28;20036;-82
2023/04/21 00:35:28;;;;;;;24.70;11.60;;;;;;;;;;10526532;28;20028;-83
2023/04/21 00:40:32;;;;;;;24.95;12.65;;;;;;;;;;10527908;28;20682;-82
2023/04/21 00:45:35;;;;;;;23.63;11.80;;;;;;;;;;10526341;28;20029;-82
2023/04/21 00:50:38;;;;;;;22.30;11.97;;;;;;;;;;10525936;28;20487;-82
2023/04/21 00:55:39;;;;;;;17.67;11.43;;;;;;;;;;10526151;28;20036;-82
2023/04/21 01:00:41;;;;;;;23.73;11.13;;;;;;;;;;10526249;28;20039;-82
2023/04/21 01:05:42;;;;;;;21.07;11.43;;;;;;;;;;10527800;28;20091;-82
2023/04/21 01:10:45;;;;;;;21.63;11.20;;;;;;;;;;10534103;28;20112;-82
2023/04/21 01:15:46;;;;;;;21.17;11.37;;;;;;;;;;10533656;28;20047;-82
2023/04/21 01:20:52;;;;;;;23.93;11.13;;;;;;;;;;10533389;28;20368;-83
2023/04/21 01:25:55;;;;;;;21.95;11.50;;;;;;;;;;10532908;28;20038;-82
2023/04/21 01:30:56;;;;;;;19.43;11.33;;;;;;;;;;10533068;28;20028;-82
2023/04/21 01:35:57;;;;;;;19.90;10.30;;;;;;;;;;10546469;28;20043;-82
2023/04/21 01:41:00;;;;;;;20.93;11.80;;;;;;;;;;10514233;28;20026;-82
2023/04/21 01:46:01;;;;;;;21.10;12.67;;;;;;;;;;10531508;28;20028;-82
2023/04/21 01:51:04;;;;;;;23.90;12.20;;;;;;;;;;10532234;28;20124;-82
2023/04/21 01:56:05;;;;;;;22.33;11.57;;;;;;;;;;10532268;28;20032;-82
2023/04/21 02:01:06;;;;;;;21.73;12.37;;;;;;;;;;10532259;28;20723;-82
2023/04/21 02:06:07;;;;;;;21.90;12.00;;;;;;;;;;10531285;28;20130;-82
2023/04/21 02:11:12;;;;;;;23.30;12.40;;;;;;;;;;10531564;28;20043;-82
2023/04/21 02:16:13;;;;;;;21.10;11.70;;;;;;;;;;10512885;28;20040;-82
2023/04/21 02:21:14;;;;;;;23.33;11.80;;;;;;;;;;10512751;28;20089;-82
2023/04/21 02:26:15;;;;;;;19.27;11.77;;;;;;;;;;10530201;28;20364;-82
2023/04/21 02:31:17;;;;;;;23.13;12.50;;;;;;;;;;10530808;28;20043;-80
2023/04/21 02:36:18;;;;;;;20.40;11.67;;;;;;;;;;10530176;28;20042;-82
2023/04/21 02:41:19;;;;;;;25.70;12.73;;;;;;;;;;10531014;28;20021;-81
2023/04/21 02:46:20;;;;;;;22.57;12.50;;;;;;;;;;10529628;28;20123;-82
2023/04/21 02:51:21;;;;;;;20.87;12.10;;;;;;;;;;10516690;28;20032;-82
2023/04/21 02:56:22;;;;;;;24.50;12.83;;;;;;;;;;10529707;28;20032;-81
2023/04/21 03:01:23;;;;;;;23.83;12.60;;;;;;;;;;10515665;28;20024;-83
2023/04/21 03:06:28;;;;;;;24.93;13.47;;;;;;;;;;10548101;28;20059;-81
2023/04/21 03:11:31;;;;;;;20.77;11.33;;;;;;;;;;10528690;28;20036;-83
2023/04/21 03:16:32;;;;;;;23.27;12.43;;;;;;;;;;10528636;28;20294;-82
2023/04/21 03:21:35;;;;;;;23.60;13.07;;;;;;;;;;10509985;28;20028;-83
2023/04/21 03:26:45;;;;;;;21.87;13.20;;;;;;;;;;10527791;28;20030;-82
2023/04/21 03:31:48;;;;;;;26.40;13.33;;;;;;;;;;10509196;28;20446;-83
2023/04/21 03:36:49;;;;;;;25.67;14.00;;;;;;;;;;10527915;28;20071;-82
2023/04/21 03:41:52;;;;;;;22.23;12.73;;;;;;;;;;10527425;28;20032;-82
2023/04/21 03:46:56;;;;;;;25.17;13.60;;;;;;;;;;10527417;28;20028;-82
2023/04/21 03:51:57;;;;;;;23.63;13.27;;;;;;;;;;10515123;28;20802;-82
2023/04/21 03:57:02;;;;;;;23.63;12.90;;;;;;;;;;10485582;28;20036;-82
2023/04/21 04:02:03;;;;;;;24.77;12.70;;;;;;;;;;10503393;28;20494;-83
2023/04/21 04:07:07;;;;;;;21.63;12.20;;;;;;;;;;10509626;28;20273;-83
2023/04/21 04:12:08;;;;;;;22.03;13.10;;;;;;;;;;10527132;28;20460;-83
2023/04/21 04:17:09;;;;;;;22.97;12.27;;;;;;;;;;10527328;28;20047;-82
2023/04/21 04:22:18;;;;;;;21.27;13.00;;;;;;;;;;10508477;28;20028;-83
2023/04/21 04:27:19;;;;;;;23.67;12.47;;;;;;;;;;10508906;28;20042;-83
2023/04/21 04:32:20;;;;;;;22.63;13.50;;;;;;;;;;10509015;28;20036;-83
2023/04/21 04:37:21;;;;;;;21.83;12.00;;;;;;;;;;10526315;28;20050;-82
2023/04/21 04:42:24;;;;;;;21.73;12.30;;;;;;;;;;10531417;28;20118;-82
2023/04/21 04:47:25;;;;;;;20.47;11.90;;;;;;;;;;10534636;28;20028;-82
2023/04/21 04:52:26;;;;;;;20.33;12.40;;;;;;;;;;10535838;28;20110;-82
2023/04/21 04:57:27;;;;;;;21.10;12.53;;;;;;;;;;10534674;28;20032;-82
2023/04/21 05:02:28;;;;;;;27.90;13.53;;;;;;;;;;10534080;28;20112;-83
2023/04/21 05:07:28;;;;;;;25.80;12.70;;;;;;;;;;10534424;28;20035;-83
2023/04/21 05:12:33;;;;;;;19.60;12.33;;;;;;;;;;10533634;28;20074;-82
2023/04/21 05:17:34;;;;;;;21.07;12.07;;;;;;;;;;10515706;28;20071;-83
2023/04/21 05:22:44;;;;;;;23.50;12.77;;;;;;;;;;10533476;28;20241;-83
2023/04/21 05:27:45;;;;;;;23.97;13.43;;;;;;;;;;10514571;28;20020;-83
2023/04/21 05:32:46;;;;;;;22.63;12.57;;;;;;;;;;10533192;28;20036;-83
2023/04/21 05:37:47;;;;;;;25.33;14.00;;;;;;;;;;10532618;28;20035;-81
2023/04/21 05:42:48;;;;;;;22.97;12.97;;;;;;;;;;10514802;28;20032;-84
2023/04/21 05:47:51;;;;;;;23.30;12.68;;;;;;;;;;10532180;28;20024;-83
2023/04/21 05:52:52;;;;;;;22.88;13.05;;;;;;;;;;10532171;28;20064;-82
2023/04/21 05:57:53;;;;;;;23.20;12.80;;;;;;;;;;10531370;28;20600;-81
2023/04/21 06:02:54;;;;;;;21.70;12.43;;;;;;;;;;10532556;28;20051;-81
2023/04/21 06:07:55;;;;;;;23.63;13.38;;;;;;;;;;10532130;28;20035;-81
2023/04/21 06:12:57;;;;;;;24.23;13.43;;;;;;;;;;10531253;28;20581;-81
2023/04/21 06:17:58;;;;;;;26.80;13.82;;;;;;;;;;10530799;28;20069;-82
2023/04/21 06:22:59;;;;;;;28.83;14.82;;;;;;;;;;10531398;28;20099;-78
2023/04/21 06:28:02;;;;;;;28.33;14.77;;;;;;;;;;10531356;28;20038;-81
2023/04/21 06:33:05;;;;;;;29.83;14.70;;;;;;;;;;10531051;28;20032;-82
2023/04/21 06:38:08;;;;;;;29.98;15.45;;;;;;;;;;10530653;28;20438;-82
2023/04/21 06:43:11;;;;;;;23.67;13.30;;;;;;;;;;10511513;28;20032;-82
2023/04/21 06:48:12;;;;;;;21.63;12.73;;;;;;;;;;10530401;28;20445;-83
2023/04/21 06:53:13;;;;;;;22.33;11.95;;;;;;;;;;10530439;28;20028;-82
2023/04/21 06:58:14;;;;;;;19.25;11.40;;;;;;;;;;10530091;28;20505;-82
2023/04/21 07:03:15;;;;;;;21.67;11.80;;;;;;;;;;10528313;28;20056;-82
2023/04/21 07:08:16;;;;;;;23.00;11.57;;;;;;;;;;10509226;28;20039;-81
2023/04/21 07:13:17;;;;;;;21.45;11.98;;;;;;;;;;10510993;28;20135;-82
2023/04/21 07:18:18;;;;;;;21.35;10.98;;;;;;;;;;10529238;28;20044;-82
2023/04/21 07:23:19;;;;;;;22.80;11.93;;;;;;;;;;10528729;28;20097;-82
2023/04/21 07:28:20;;;;;;;18.48;9.50;;;;;;;;;;10527974;28;20489;-81
2023/04/21 07:33:21;;;;;;;19.02;9.93;;;;;;;;;;10526850;28;20115;-82
2023/04/21 07:38:22;;;;;;;17.45;9.27;;;;;;;;;;10528043;28;20055;-80
2023/04/21 07:43:24;;;;;;;15.00;9.05;;;;;;;;;;10528328;28;20102;-82
2023/04/21 07:48:25;;;;;;;16.60;8.70;;;;;;;;;;10526583;28;20070;-78
2023/04/21 07:53:26;;;;;;;18.55;9.02;;;;;;;;;;10527885;28;20024;-83
2023/04/21 07:58:27;;;;;;;12.95;8.48;;;;;;;;;;10528092;28;20515;-82
2023/04/21 08:03:28;;;;;;;15.48;8.05;;;;;;;;;;10527474;28;20167;-82
2023/04/21 08:08:31;;;;;;;24.88;14.73;;;;;;;;;;10508773;28;20027;-83
2023/04/21 08:13:32;;;;;;;25.98;13.70;;;;;;;;;;10521938;28;20041;-83
2023/04/21 08:18:33;;;;;;;61.30;37.47;;;;;;;;;;10491065;28;20028;-83
2023/04/21 08:23:34;;;;;;;30.58;19.42;;;;;;;;;;10494901;28;20086;-83
2023/04/21 08:28:35;;;;;;;19.05;11.40;;;;;;;;;;10512988;28;20111;-82
2023/04/21 08:33:38;;;;;;;20.85;11.38;;;;;;;;;;10526011;28;20054;-82
2023/04/21 08:38:43;;;;;;;10.15;7.63;;;;;;;;;;10525587;28;20032;-83
2023/04/21 08:43:44;;;;;;;11.87;7.07;;;;;;;;;;10526018;28;20509;-82
2023/04/21 08:48:46;;;;;;;15.75;10.07;;;;;;;;;;10516978;28;20035;-82
2023/04/21 08:53:47;;;;;;;13.90;8.25;;;;;;;;;;10526181;28;20055;-81
2023/04/21 08:58:48;;;;;;;9.52;5.57;;;;;;;;;;10526768;28;20040;-81
2023/04/21 09:03:49;;;;;;;9.75;5.53;;;;;;;;;;10526893;28;20058;-82
2023/04/21 09:08:56;;;;;;;11.95;6.70;;;;;;;;;;10526975;28;20024;-82
2023/04/21 09:13:57;;;;;;;9.73;6.28;;;;;;;;;;10526015;28;20507;-81
2023/04/21 09:19:01;;;;;;;13.95;6.60;;;;;;;;;;10526262;28;20035;-81
2023/04/21 09:24:05;;;;;;;8.98;6.35;;;;;;;;;;10525901;28;20056;-81
2023/04/21 09:29:06;;;;;;;10.13;6.70;;;;;;;;;;10530134;28;20047;-82
2023/04/21 09:34:17;;;;;;;9.75;6.43;;;;;;;;;;10533445;28;20032;-81
2023/04/21 09:39:22;;;;;;;10.52;6.00;;;;;;;;;;10532718;28;20044;-81
2023/04/21 09:44:24;;;;;;;8.30;5.82;;;;;;;;;;10532769;28;20036;-82
2023/04/21 09:49:27;;;;;;;8.07;5.35;;;;;;;;;;10532112;28;20115;-82
2023/04/21 09:54:29;;;;;;;9.52;5.68;;;;;;;;;;10532357;28;20028;-82
2023/04/21 09:59:35;;;;;;;7.80;6.20;;;;;;;;;;10532095;28;20392;-80
2023/04/21 10:04:37;;;;;;;9.95;6.47;;;;;;;;;;10532203;28;20086;-79
2023/04/21 10:09:50;;;;;;;14.52;6.85;;;;;;;;;;10531671;28;20773;-81
2023/04/21 10:14:53;;;;;;;7.07;5.50;;;;;;;;;;10531422;28;20032;-82
2023/04/21 10:19:56;;;;;;;11.23;6.28;;;;;;;;;;10513154;28;20032;-81
2023/04/21 10:24:57;;;;;;;6.40;5.30;;;;;;;;;;10531028;28;20717;-81
2023/04/21 10:29:59;;;;;;;7.63;5.30;;;;;;;;;;10531058;28;20379;-81
2023/04/21 10:35:00;;;;;;;10.40;5.70;;;;;;;;;;10530945;28;20099;-81
2023/04/21 10:40:06;;;;;;;9.70;5.93;;;;;;;;;;10529607;28;20032;-82
2023/04/21 10:45:06;;;;;;;;;;;;;;;;;;10530860;28;20131;-81
2023/04/21 10:50:21;;;;;;;15.57;9.77;;;;;;;;;;10517115;28;19908;-81
2023/04/21 10:55:25;;;;;;;40.13;26.95;;;;;;;;;;10529698;28;20054;-81
2023/04/21 11:00:27;;;;;;;7.70;5.28;;;;;;;;;;10529145;28;20086;-81
2023/04/21 11:05:33;;;;;;;8.45;6.00;;;;;;;;;;10529524;28;20048;-82
2023/04/21 11:10:43;;;;;;;6.68;5.07;;;;;;;;;;10529302;28;20020;-83
2023/04/21 11:16:00;;;;;;;7.45;5.45;;;;;;;;;;10506788;28;20040;-84
2023/04/21 11:21:10;;;;;;;7.68;5.75;;;;;;;;;;10529059;28;20036;-87
2023/04/21 11:26:11;;;;;;;10.00;5.70;;;;;;;;;;10541685;28;20036;-81
2023/04/21 11:31:13;;;;;;;7.30;5.43;;;;;;;;;;10528248;28;20043;-82
2023/04/21 11:36:14;;;;;;;9.27;5.13;;;;;;;;;;10528532;28;20466;-82
2023/04/21 11:41:21;;;;;;;9.50;5.68;;;;;;;;;;10528244;28;20040;-81
2023/04/21 11:46:26;;;;;;;8.02;6.18;;;;;;;;;;10527705;28;20039;-82
2023/04/21 11:51:40;;;;;;;12.93;5.78;;;;;;;;;;10528519;28;20073;-81
2023/04/21 11:56:42;;;;;;;5.78;4.82;;;;;;;;;;10527097;28;20039;-80
2023/04/21 12:01:47;;;;;;;6.40;5.47;;;;;;;;;;10527101;28;20142;-81
2023/04/21 12:06:56;;;;;;;5.70;4.93;;;;;;;;;;10526710;28;20113;-81
2023/04/21 12:11:57;;;;;;;9.85;5.40;;;;;;;;;;10527653;28;20020;-81
2023/04/21 12:16:58;;;;;;;8.95;5.30;;;;;;;;;;10527337;28;20024;-81
2023/04/21 12:22:00;;;;;;;6.10;4.78;;;;;;;;;;10508930;28;20424;-81
2023/04/21 12:27:01;;;;;;;6.32;4.75;;;;;;;;;;10526364;28;20495;-81
2023/04/21 12:32:03;;;;;;;6.10;4.40;;;;;;;;;;10526342;28;20028;-81
2023/04/21 12:37:04;;;;;;;8.45;5.15;;;;;;;;;;10526830;28;20056;-82
2023/04/21 12:42:05;;;;;;;4.97;4.18;;;;;;;;;;10526421;28;20024;-81
2023/04/21 12:47:07;;;;;;;9.45;4.80;;;;;;;;;;10525964;28;20040;-83
2023/04/21 12:52:08;;;;;;;9.48;4.63;;;;;;;;;;10526278;28;20107;-80
2023/04/21 12:57:10;;;;;;;6.85;4.60;;;;;;;;;;10512361;28;20032;-81
2023/04/21 13:02:11;;;;;;;8.93;4.47;;;;;;;;;;10528114;28;20047;-81
2023/04/21 13:07:14;;;;;;;15.40;6.03;;;;;;;;;;10534162;28;20032;-80
2023/04/21 13:12:16;;;;;;;14.77;7.95;;;;;;;;;;10534046;28;20075;-80
2023/04/21 13:17:17;;;;;;;6.78;4.68;;;;;;;;;;10533281;28;20035;-80
2023/04/21 13:22:18;;;;;;;8.38;4.70;;;;;;;;;;10533552;28;20110;-80
2023/04/21 13:27:19;;;;;;;5.55;3.58;;;;;;;;;;10532299;28;20027;-80
2023/04/21 13:32:20;;;;;;;7.88;4.22;;;;;;;;;;10532402;28;20027;-81
2023/04/21 13:37:21;;;;;;;6.03;3.95;;;;;;;;;;10531428;28;20044;-81
2023/04/21 13:42:22;;;;;;;5.35;3.55;;;;;;;;;;10532509;28;20032;-81
2023/04/21 13:47:23;;;;;;;7.80;4.80;;;;;;;;;;10514085;28;20699;-81
2023/04/21 13:52:24;;;;;;;5.82;3.50;;;;;;;;;;10531943;28;20024;-80
2023/04/21 13:57:25;;;;;;;5.10;3.80;;;;;;;;;;10531885;28;20027;-81
2023/04/21 14:02:26;;;;;;;5.40;3.47;;;;;;;;;;10532048;28;20075;-80
2023/04/21 14:07:28;;;;;;;5.68;3.72;;;;;;;;;;10531325;28;20036;-81
2023/04/21 14:12:29;;;;;;;6.20;4.05;;;;;;;;;;10530854;28;20020;-80
2023/04/21 14:17:30;;;;;;;6.50;3.95;;;;;;;;;;10524994;28;20097;-82
2023/04/21 14:22:31;;;;;;;6.10;4.03;;;;;;;;;;10509693;28;20028;-82
2023/04/21 14:27:32;;;;;;;4.57;3.88;;;;;;;;;;10530773;28;20024;-81
2023/04/21 14:32:33;;;;;;;5.53;4.05;;;;;;;;;;10530600;28;20028;-81
2023/04/21 14:37:36;;;;;;;5.57;3.78;;;;;;;;;;10530764;28;20040;-82
2023/04/21 14:42:37;;;;;;;6.28;4.03;;;;;;;;;;10531033;28;20038;-81
2023/04/21 14:47:38;;;;;;;5.60;3.90;;;;;;;;;;10529824;28;20036;-82
2023/04/21 14:52:39;;;;;;;4.80;3.88;;;;;;;;;;10529879;28;20016;-81
2023/04/21 14:57:42;;;;;;;5.00;3.78;;;;;;;;;;10529570;28;20028;-81
2023/04/21 15:02:43;;;;;;;5.00;3.83;;;;;;;;;;10529858;28;20520;-81
2023/04/21 15:07:44;;;;;;;6.68;3.90;;;;;;;;;;10529054;28;20032;-81
2023/04/21 15:12:45;;;;;;;6.00;4.13;;;;;;;;;;10510638;28;20056;-82
2023/04/21 15:17:46;;;;;;;4.03;3.63;;;;;;;;;;10528837;28;20130;-81
2023/04/21 15:22:52;;;;;;;4.97;3.50;;;;;;;;;;10529091;28;20024;-81
2023/04/21 15:27:53;;;;;;;7.88;3.95;;;;;;;;;;10527478;28;20039;-81
2023/04/21 15:32:56;;;;;;;4.93;3.45;;;;;;;;;;10528238;28;20356;-81
2023/04/21 15:37:57;;;;;;;5.93;3.78;;;;;;;;;;10527888;28;20043;-81
2023/04/21 15:42:58;;;;;;;6.05;4.13;;;;;;;;;;10528083;28;20028;-82
2023/04/21 15:48:01;;;;;;;6.57;4.13;;;;;;;;;;10527519;28;20020;-81
2023/04/21 15:53:06;;;;;;;5.40;3.40;;;;;;;;;;10527782;28;20032;-81
2023/04/21 15:58:07;;;;;;;3.45;3.15;;;;;;;;;;10527109;28;20032;-81
2023/04/21 16:03:09;;;;;;;6.03;3.88;;;;;;;;;;10527523;28;20055;-82
2023/04/21 16:08:10;;;;;;;7.78;4.80;;;;;;;;;;10527766;28;20036;-81
2023/04/21 16:13:11;;;;;;;6.50;3.60;;;;;;;;;;10527264;28;20039;-81
2023/04/21 16:18:12;;;;;;;8.68;3.72;;;;;;;;;;10527228;28;20442;-81
2023/04/21 16:23:13;;;;;;;5.68;3.10;;;;;;;;;;10512615;28;20104;-81
2023/04/21 16:28:14;;;;;;;5.32;3.80;;;;;;;;;;10527113;28;20481;-81
2023/04/21 16:33:16;;;;;;;6.32;3.25;;;;;;;;;;10526638;28;20038;-81
2023/04/21 16:38:17;;;;;;;5.15;3.20;;;;;;;;;;10532120;28;20127;-81
2023/04/21 16:43:18;;;;;;;7.00;3.63;;;;;;;;;;10535765;28;20031;-81
2023/04/21 16:48:21;;;;;;;6.38;4.07;;;;;;;;;;10524926;28;20060;-82
2023/04/21 16:53:25;;;;;;;6.95;3.80;;;;;;;;;;10505850;28;20724;-81
2023/04/21 16:58:27;;;;;;;6.32;3.42;;;;;;;;;;10492043;28;20035;-81
2023/04/21 17:03:28;;;;;;;8.30;4.25;;;;;;;;;;10491989;28;20181;-82
2023/04/21 17:08:29;;;;;;;8.27;4.18;;;;;;;;;;10492149;28;20032;-82
2023/04/21 17:13:30;;;;;;;7.78;4.60;;;;;;;;;;10491485;28;20036;-82
2023/04/21 17:18:31;;;;;;;6.40;4.13;;;;;;;;;;10491400;28;20040;-81
2023/04/21 17:23:32;;;;;;;6.13;4.45;;;;;;;;;;10490796;28;20028;-82
2023/04/21 17:28:33;;;;;;;7.18;4.55;;;;;;;;;;10491740;28;20392;-82
2023/04/21 17:33:40;;;;;;;8.23;4.70;;;;;;;;;;10490518;28;20452;-82
2023/04/21 17:38:41;;;;;;;7.20;4.75;;;;;;;;;;10490423;28;20063;-82
2023/04/21 17:43:43;;;;;;;7.20;4.88;;;;;;;;;;10503875;28;20730;-82
2023/04/21 17:48:44;;;;;;;8.95;4.65;;;;;;;;;;10496219;28;20032;-82
2023/04/21 17:53:45;;;;;;;9.95;4.97;;;;;;;;;;10496096;28;20027;-79
2023/04/21 17:58:47;;;;;;;8.95;5.00;;;;;;;;;;10490237;28;20086;-82
2023/04/21 18:03:48;;;;;;;10.25;5.68;;;;;;;;;;10496221;28;20052;-81
2023/04/21 18:08:49;;;;;;;16.23;8.15;;;;;;;;;;10531780;28;20093;-81
2023/04/21 18:13:50;;;;;;;18.52;8.40;;;;;;;;;;10517726;28;20032;-79
2023/04/21 18:18:51;;;;;;;20.23;8.75;;;;;;;;;;10544969;28;20028;-82
2023/04/21 18:23:52;;;;;;;17.05;9.05;;;;;;;;;;10512354;28;20382;-82
2023/04/21 18:28:57;;;;;;;15.20;7.53;;;;;;;;;;10531383;28;20552;-82
2023/04/21 18:33:59;;;;;;;14.80;7.90;;;;;;;;;;10530522;28;20039;-82
2023/04/21 18:39:02;;;;;;;13.80;8.07;;;;;;;;;;10530247;28;20623;-81
2023/04/21 18:44:04;;;;;;;12.68;7.32;;;;;;;;;;10530562;28;20036;-81
2023/04/21 18:49:05;;;;;;;23.65;11.80;;;;;;;;;;10530234;28;20081;-82
2023/04/21 18:54:06;;;;;;;18.58;10.18;;;;;;;;;;10529817;28;20028;-81
2023/04/21 18:59:08;;;;;;;22.55;10.90;;;;;;;;;;10530171;28;20044;-82
2023/04/21 19:04:09;;;;;;;27.23;13.88;;;;;;;;;;10527782;28;20055;-82
2023/04/21 19:09:12;;;;;;;21.23;11.82;;;;;;;;;;10521958;28;20054;-81
2023/04/21 19:14:13;;;;;;;24.97;11.57;;;;;;;;;;10515442;28;20043;-82
2023/04/21 19:19:15;;;;;;;19.77;11.13;;;;;;;;;;10528630;28;20043;-82
2023/04/21 19:24:16;;;;;;;21.20;10.83;;;;;;;;;;10521056;28;20455;-82
2023/04/21 19:29:17;;;;;;;18.40;10.47;;;;;;;;;;10500368;28;20107;-82
2023/04/21 19:34:18;;;;;;;20.97;10.93;;;;;;;;;;10507566;28;20029;-81
2023/04/21 19:39:19;;;;;;;25.37;11.93;;;;;;;;;;10509776;28;20040;-81
2023/04/21 19:44:20;;;;;;;20.70;9.63;;;;;;;;;;10509355;28;20594;-81
2023/04/21 19:49:25;;;;;;;18.03;9.47;;;;;;;;;;10520027;28;20035;-81
2023/04/21 19:54:26;;;;;;;17.77;9.80;;;;;;;;;;10526550;28;20387;-81
2023/04/21 19:59:29;;;;;;;19.93;10.13;;;;;;;;;;10518533;28;20047;-81
2023/04/21 20:04:30;;;;;;;18.97;8.37;;;;;;;;;;10521863;28;20052;-82
2023/04/21 20:09:33;;;;;;;15.50;7.70;;;;;;;;;;10527151;28;20034;-81
2023/04/21 20:14:34;;;;;;;17.20;8.47;;;;;;;;;;10526980;28;20028;-81
2023/04/21 20:19:39;;;;;;;13.83;7.80;;;;;;;;;;10508709;28;20040;-81
2023/04/21 20:24:43;;;;;;;15.33;8.20;;;;;;;;;;10526818;28;20016;-81
2023/04/21 20:29:46;;;;;;;20.20;10.00;;;;;;;;;;10526712;28;20426;-82
2023/04/21 20:34:47;;;;;;;16.10;9.27;;;;;;;;;;10526822;28;20027;-81
2023/04/21 20:39:48;;;;;;;20.33;10.93;;;;;;;;;;10526683;28;20047;-82
2023/04/21 20:44:49;;;;;;;28.33;12.40;;;;;;;;;;10526867;28;20035;-82
2023/04/21 20:49:50;;;;;;;22.63;11.57;;;;;;;;;;10526536;28;20028;-81
2023/04/21 20:54:51;;;;;;;21.50;11.60;;;;;;;;;;10526411;28;20028;-81
2023/04/21 20:59:52;;;;;;;29.73;13.10;;;;;;;;;;10525716;28;20459;-81
2023/04/21 21:04:53;;;;;;;27.77;13.43;;;;;;;;;;10525521;28;20052;-81
2023/04/21 21:09:55;;;;;;;29.37;14.07;;;;;;;;;;10526176;28;20111;-81
2023/04/21 21:14:56;;;;;;;27.80;14.00;;;;;;;;;;10507578;28;20038;-81
2023/04/21 21:19:57;;;;;;;29.57;14.07;;;;;;;;;;10525887;28;20471;-81
2023/04/21 21:24:58;;;;;;;30.80;14.43;;;;;;;;;;10529915;28;20054;-81
2023/04/21 21:29:59;;;;;;;27.43;13.70;;;;;;;;;;10533210;28;20024;-81
2023/04/21 21:35:00;;;;;;;28.90;13.50;;;;;;;;;;10533040;28;20032;-82
2023/04/21 21:40:01;;;;;;;29.60;14.13;;;;;;;;;;10532178;28;20039;-81
2023/04/21 21:45:02;;;;;;;31.80;14.27;;;;;;;;;;10532939;28;20085;-81
2023/04/21 21:50:03;;;;;;;29.33;13.47;;;;;;;;;;10532339;28;20047;-81
2023/04/21 21:55:04;;;;;;;26.50;13.30;;;;;;;;;;10514324;28;20032;-81
2023/04/21 22:00:07;;;;;;;26.43;13.37;;;;;;;;;;10532363;28;20036;-82
2023/04/21 22:05:09;;;;;;;26.30;12.87;;;;;;;;;;10531712;28;21155;-81
2023/04/21 22:10:10;;;;;;;29.07;13.23;;;;;;;;;;10532082;28;20574;-81
2023/04/21 22:15:11;;;;;;;27.40;12.77;;;;;;;;;;10531992;28;20036;-81
2023/04/21 22:20:14;;;;;;;24.93;12.70;;;;;;;;;;10531505;28;20118;-81
2023/04/21 22:25:15;;;;;;;24.47;11.97;;;;;;;;;;10531060;28;20035;-81
2023/04/21 22:30:16;;;;;;;22.80;12.17;;;;;;;;;;10531140;28;20020;-81
2023/04/21 22:35:17;;;;;;;24.33;13.63;;;;;;;;;;10531158;28;20038;-80
2023/04/21 22:40:18;;;;;;;26.00;12.77;;;;;;;;;;10530763;28;20678;-81
2023/04/21 22:45:20;;;;;;;24.77;12.70;;;;;;;;;;10530635;28;20109;-81
2023/04/21 22:50:21;;;;;;;24.37;12.97;;;;;;;;;;10530374;28;20040;-81
2023/04/21 22:55:24;;;;;;;24.40;13.40;;;;;;;;;;10529763;28;20020;-81
2023/04/21 23:00:25;;;;;;;24.30;11.90;;;;;;;;;;10530254;28;20032;-80
2023/04/21 23:05:26;;;;;;;21.93;11.57;;;;;;;;;;10529670;28;20052;-81
2023/04/21 23:10:28;;;;;;;20.63;10.50;;;;;;;;;;10529280;28;20035;-81
2023/04/21 23:15:28;;;;;;;21.53;10.97;;;;;;;;;;10528861;28;20647;-80
2023/04/21 23:20:30;;;;;;;21.40;11.37;;;;;;;;;;10529385;28;20039;-81
2023/04/21 23:25:31;;;;;;;22.30;11.37;;;;;;;;;;10510415;28;20464;-81
2023/04/21 23:30:32;;;;;;;18.47;9.23;;;;;;;;;;10528567;28;20038;-81
2023/04/21 23:35:33;;;;;;;17.00;9.77;;;;;;;;;;10528259;28;20638;-81
2023/04/21 23:40:36;;;;;;;19.43;10.40;;;;;;;;;;10528362;28;20490;-81
2023/04/21 23:45:40;;;;;;;18.60;10.53;;;;;;;;;;10509403;28;20078;-81
2023/04/21 23:50:41;;;;;;;17.47;9.00;;;;;;;;;;10510631;28;20016;-81
2023/04/21 23:55:42;;;;;;;20.47;9.50;;;;;;;;;;10527509;28;20024;-81
